ADDS METAR Data INFO
IDs: Format: Raw Decoded Include TAF

Data at: 1734 UTC 15 Dec 2017

KMHK 151652Z 22009KT 10SM CLR 04/M04 A3015 RMK AO2 SLP217 T00441039
KMHK 151552Z 21007KT 10SM CLR 01/M03 A3017 RMK AO2 SLP224 T00111033
KMHK 151452Z 23007KT 10SM CLR M01/M04 A3017 RMK AO2 SLP224 T10111044 58004
KMHK 151352Z 23007KT 8SM CLR M03/M05 A3017 RMK AO2 SLP224 T10281050
KMHK 151252Z 26005KT 10SM CLR M02/M04 A3018 RMK AO2 SLP230 T10221044
KMHK 151152Z AUTO 28005KT 10SM FEW049 M01/M03 A3018 RMK AO2 SLP227 T10111033 10039 21011 58002
KMHK 151052Z AUTO 28003KT 10SM OVC045 00/M02 A3018 RMK AO2 SLP226 T00001022
KMHK 150952Z AUTO 28005KT 9SM CLR M01/M03 A3019 RMK AO2 SLP231 T10061028
KMHK 150852Z AUTO VRB04KT 10SM CLR 02/M01 A3019 RMK AO2 SLP228 T00171011 53004
KMHK 150752Z AUTO 00000KT 10SM SCT055 03/M01 A3017 RMK AO2 SLP223 T00281006
KMHK 150652Z AUTO 32005KT 10SM OVC048 04/00 A3017 RMK AO2 SLP222 T00390000
KMHK 150552Z AUTO VRB04KT 10SM FEW026 OVC035 04/01 A3017 RMK AO2 SLP224 T00390006 10067 20033 400941006 50003
KMHK 150452Z AUTO 29003KT 10SM FEW017 BKN050 OVC060 04/01 A3018 RMK AO2 SLP225 T00390006
KMHK 150445Z AUTO VRB03KT 10SM SCT017 SCT040 OVC060 04/01 A3018 RMK AO2 T00390006
KMHK 150426Z AUTO VRB03KT 10SM BKN019 BKN039 BKN080 04/00 A3018 RMK AO2 T00390000
KMHK 150352Z AUTO 34004KT 10SM OVC025 04/01 A3017 RMK AO2 SLP225 T00390006
KMHK 150339Z AUTO 34005KT 10SM BKN025 OVC075 04/01 A3017 RMK AO2 T00390006
KMHK 150252Z VRB05KT 10SM FEW049 BKN055 OVC070 04/01 A3016 RMK AO2 SLP223 T00440006 51021
KMHK 150152Z VRB04KT 10SM BKN048 OVC055 05/01 A3015 RMK AO2 SLP217 T00500006
KMHK 150052Z 36005KT 10SM FEW028 BKN050 OVC110 06/01 A3013 RMK AO2 SLP209 T00560006
KMHK 142352Z 31005KT 10SM OVC043 07/M01 A3010 RMK AO2 SLP200 T00671006 10094 20067 53010
KMHK 142252Z 32005KT 10SM FEW050 BKN070 OVC085 07/M02 A3009 RMK AO2 SLP196 T00721017
KMHK 142152Z 28006KT 10SM OVC070 07/M02 A3008 RMK AO2 SLP191 T00721017
KMHK 142052Z 28008KT 10SM BKN075 OVC095 09/M03 A3007 RMK AO2 SLP189 T00891028 56012
KMHK 141952Z 27006KT 10SM FEW075 OVC090 08/M03 A3007 RMK AO2 SLP190 T00831033
KMHK 141852Z VRB06KT 10SM SCT075 09/M03 A3008 RMK AO2 SLP192 T00941033
KMHK 141752Z 32006KT 10SM CLR 08/M03 A3011 RMK AO2 SLP202 T00831033 10083 20006 58004
KMHK 141652Z 34003KT 10SM CLR 06/M03 A3013 RMK AO2 SLP208 T00561028 $
KMHK 141552Z VRB04KT 10SM OVC048 03/M03 A3014 RMK AO2 SLP212 T00331028
KMHK 141452Z 28005KT 10SM CLR 02/M03 A3012 RMK AO2 SLP206 T00221033 53013
KMHK 141352Z 27004KT 10SM CLR 01/M03 A3010 RMK AO2 SLP200 T00061033
KMHK 141252Z 29003KT 10SM OVC039 02/M03 A3009 RMK AO2 SLP194 T00221028 $
KMHK 141152Z AUTO 00000KT OVC037 02/M03 A3008 RMK AO2 SLP193 T00221028 10028 21006 53008 $
KMHK 141052Z AUTO 00000KT OVC039 02/M03 A3007 RMK AO2 SLP185 T00221028 $
KMHK 140952Z AUTO 00000KT 10SM OVC040 02/M03 A3005 RMK AO2 SLP180 T00221028 $
KMHK 140852Z AUTO VRB03KT 10SM OVC040 02/M03 A3006 RMK AO2 SLP181 T00171033 52017 $
KMHK 140752Z AUTO 33003KT CLR 01/M04 A3004 RMK AO2 SLP176 T00061039 $
KMHK 140652Z AUTO 34003KT 10SM CLR 02/M03 A3002 RMK AO2 SLP168 T00221028
KMHK 140552Z AUTO 36004KT 10SM CLR 02/M03 A3001 RMK AO2 SLP164 T00171033 10100 20017 401671022 51020